createdAt,value
2023-04-22T00:02:39.914Z,11.07
2023-04-22T00:05:44.969Z,11.06
2023-04-22T00:08:48.482Z,11.06
2023-04-22T00:11:52.341Z,11.06
2023-04-22T00:14:57.334Z,11.05
2023-04-22T00:18:01.023Z,11.02
2023-04-22T00:21:05.032Z,11.02
2023-04-22T00:24:08.772Z,11.02
2023-04-22T00:27:12.461Z,10.98
2023-04-22T00:30:18.143Z,10.94
2023-04-22T00:33:21.685Z,10.95
2023-04-22T00:36:25.158Z,10.97
2023-04-22T00:39:28.768Z,10.94
2023-04-22T00:42:32.712Z,10.95
2023-04-22T00:45:39.019Z,10.95
2023-04-22T00:48:43.244Z,11.00
2023-04-22T00:51:46.805Z,10.95
2023-04-22T00:54:50.708Z,11.04
2023-04-22T00:57:59.603Z,11.06
2023-04-22T01:01:05.074Z,11.03
2023-04-22T01:04:12.360Z,11.07
2023-04-22T01:07:16.520Z,11.02
2023-04-22T01:10:20.331Z,11.01
2023-04-22T01:13:24.196Z,11.01
2023-04-22T01:16:31.294Z,10.99
2023-04-22T01:19:35.008Z,11.02
2023-04-22T01:22:43.015Z,11.02
2023-04-22T01:25:48.716Z,10.98
2023-04-22T01:28:52.625Z,10.95
2023-04-22T01:31:57.192Z,10.90
2023-04-22T01:35:01.171Z,10.88
2023-04-22T01:38:05.552Z,10.80
2023-04-22T01:41:10.799Z,10.74
2023-04-22T01:44:14.242Z,10.71
2023-04-22T01:47:17.900Z,10.71
2023-04-22T01:50:22.152Z,10.65
2023-04-22T01:53:26.033Z,10.63
2023-04-22T01:56:30.960Z,10.65
2023-04-22T01:59:35.135Z,10.58
2023-04-22T02:02:38.808Z,10.59
2023-04-22T02:05:42.455Z,10.62
2023-04-22T02:08:45.934Z,10.58
2023-04-22T02:11:50.833Z,10.58
2023-04-22T02:14:54.291Z,10.45
2023-04-22T02:17:57.852Z,10.44
2023-04-22T02:21:01.679Z,10.39
2023-04-22T02:24:05.873Z,10.34
2023-04-22T02:27:11.169Z,10.26
2023-04-22T02:30:14.973Z,10.16
2023-04-22T02:33:18.716Z,10.12
2023-04-22T02:36:22.171Z,10.03
2023-04-22T02:39:27.240Z,9.94
2023-04-22T02:42:32.208Z,9.92
2023-04-22T02:45:35.961Z,9.88
2023-04-22T02:48:39.492Z,9.86
2023-04-22T02:51:43.059Z,9.81
2023-04-22T02:54:46.614Z,9.72
2023-04-22T02:57:51.868Z,9.76
2023-04-22T03:00:56.872Z,9.77
2023-04-22T03:04:00.865Z,9.73
2023-04-22T03:07:04.620Z,9.76
2023-04-22T03:10:10.678Z,9.72
2023-04-22T03:13:16.179Z,9.70
2023-04-22T03:16:19.787Z,9.65
2023-04-22T03:19:23.337Z,9.60
2023-04-22T03:22:26.894Z,9.56
2023-04-22T03:25:30.468Z,9.59
2023-04-22T03:28:35.477Z,9.55
2023-04-22T03:31:38.993Z,9.56
2023-04-22T03:34:42.557Z,9.54
2023-04-22T03:37:46.132Z,9.49
2023-04-22T03:40:51.066Z,9.52
2023-04-22T03:43:57.518Z,9.49
2023-04-22T03:47:01.848Z,9.47
2023-04-22T03:50:07.138Z,9.43
2023-04-22T03:53:10.636Z,9.41
2023-04-22T03:56:14.201Z,9.46
2023-04-22T03:59:19.891Z,9.52
2023-04-22T04:02:23.434Z,9.54
2023-04-22T04:05:27.124Z,9.52
2023-04-22T04:08:32.370Z,9.52
2023-04-22T04:11:35.836Z,9.54
2023-04-22T04:14:40.725Z,9.56
2023-04-22T04:17:44.580Z,9.67
2023-04-22T04:20:48.214Z,9.65
2023-04-22T04:23:51.736Z,9.69
2023-04-22T04:26:55.413Z,9.71
2023-04-22T04:30:00.632Z,9.72
2023-04-22T04:33:07.032Z,9.74
2023-04-22T04:36:10.877Z,9.78
2023-04-22T04:39:17.288Z,9.74
2023-04-22T04:42:21.001Z,9.71
2023-04-22T04:45:26.422Z,9.70
2023-04-22T04:48:29.950Z,9.73
2023-04-22T04:51:33.632Z,9.69
2023-04-22T04:54:37.248Z,9.65
2023-04-22T04:57:41.237Z,9.64
2023-04-22T05:00:46.125Z,9.66
2023-04-22T05:03:51.500Z,9.73
2023-04-22T05:06:55.559Z,9.78
2023-04-22T05:09:59.099Z,9.82
2023-04-22T05:13:04.106Z,9.85
2023-04-22T05:16:09.460Z,9.94
2023-04-22T05:19:12.961Z,10.01
2023-04-22T05:22:17.996Z,10.17
2023-04-22T05:25:21.543Z,10.17
2023-04-22T05:28:25.180Z,10.22
2023-04-22T05:31:30.194Z,10.44
2023-04-22T05:34:34.313Z,10.51
2023-04-22T05:37:38.520Z,10.68
2023-04-22T05:40:42.136Z,10.92
2023-04-22T05:43:45.658Z,11.16
2023-04-22T05:46:50.555Z,11.45
2023-04-22T05:49:54.033Z,12.03
2023-04-22T05:52:57.755Z,12.08
2023-04-22T05:56:01.271Z,12.09
2023-04-22T05:59:05.790Z,12.48
2023-04-22T06:02:10.794Z,12.29
2023-04-22T06:05:14.472Z,12.19
2023-04-22T06:08:19.626Z,12.68
2023-04-22T06:11:23.774Z,12.59
2023-04-22T06:14:27.237Z,13.00
2023-04-22T06:17:32.098Z,13.36
2023-04-22T06:20:36.041Z,13.34
2023-04-22T06:23:39.773Z,13.43
2023-04-22T06:26:46.416Z,13.32
2023-04-22T06:29:49.955Z,13.47
2023-04-22T06:32:55.601Z,13.58
2023-04-22T06:35:59.173Z,13.70
2023-04-22T06:39:03.582Z,13.65
2023-04-22T06:42:07.193Z,13.74
2023-04-22T06:45:12.954Z,13.60
2023-04-22T06:48:17.866Z,13.57
2023-04-22T06:51:21.537Z,13.52
2023-04-22T06:54:25.099Z,13.68
2023-04-22T06:57:28.772Z,13.58
2023-04-22T07:00:32.906Z,13.70
2023-04-22T07:03:37.906Z,13.72
2023-04-22T07:06:41.523Z,13.57
2023-04-22T07:09:45.112Z,13.79
2023-04-22T07:12:48.663Z,13.78
2023-04-22T07:15:52.240Z,13.89
2023-04-22T07:18:57.379Z,13.86
2023-04-22T07:22:01.203Z,13.69
2023-04-22T07:25:07.239Z,13.84
2023-04-22T07:28:11.199Z,14.41
2023-04-22T07:31:14.776Z,14.90
2023-04-22T07:34:19.891Z,15.16
2023-04-22T07:37:23.509Z,15.22
2023-04-22T07:40:27.216Z,15.68
2023-04-22T07:43:30.751Z,15.52
2023-04-22T07:46:43.314Z,15.05
2023-04-22T07:49:52.419Z,15.56
2023-04-22T07:52:56.890Z,15.28
2023-04-22T07:56:02.382Z,15.34
2023-04-22T07:59:06.083Z,15.42
2023-04-22T08:02:09.810Z,15.56
2023-04-22T08:05:14.992Z,15.89
2023-04-22T08:08:18.485Z,15.78
2023-04-22T08:11:22.068Z,15.88
2023-04-22T08:14:25.791Z,16.26
2023-04-22T08:17:29.482Z,16.27
2023-04-22T08:20:34.509Z,16.03
2023-04-22T08:23:37.996Z,16.35
2023-04-22T08:26:41.986Z,16.34
2023-04-22T08:29:45.493Z,16.75
2023-04-22T08:32:49.027Z,17.09
2023-04-22T08:35:54.484Z,17.24
2023-04-22T08:38:58.003Z,17.70
2023-04-22T08:42:02.340Z,17.40
2023-04-22T08:45:07.296Z,18.06
2023-04-22T08:48:11.648Z,17.84
2023-04-22T08:51:18.578Z,17.91
2023-04-22T08:54:22.087Z,18.26
2023-04-22T08:57:27.328Z,18.72
2023-04-22T09:00:32.280Z,18.75
2023-04-22T09:03:37.563Z,19.08
2023-04-22T09:06:42.741Z,19.81
2023-04-22T09:09:48.022Z,19.66
2023-04-22T09:12:52.881Z,19.45
2023-04-22T09:15:59.330Z,19.86
2023-04-22T09:19:03.449Z,20.13
2023-04-22T09:22:14.263Z,20.05
2023-04-22T09:25:19.743Z,20.04
2023-04-22T09:28:23.460Z,19.96
2023-04-22T09:31:27.261Z,19.95
2023-04-22T09:34:30.976Z,19.44
2023-04-22T09:37:46.553Z,19.54
2023-04-22T09:40:53.167Z,19.12
2023-04-22T09:43:58.371Z,19.42
2023-04-22T09:47:02.212Z,19.02
2023-04-22T09:50:06.281Z,19.45
2023-04-22T09:53:15.714Z,19.68
2023-04-22T09:56:19.152Z,19.24
2023-04-22T09:59:24.061Z,19.29
2023-04-22T10:02:31.091Z,19.19
2023-04-22T10:05:37.489Z,19.87
2023-04-22T10:08:45.403Z,19.70
2023-04-22T10:11:51.428Z,19.92
2023-04-22T10:14:54.913Z,19.71
2023-04-22T10:18:00.066Z,19.87
2023-04-22T10:21:04.123Z,19.48
2023-04-22T10:24:15.848Z,19.44
2023-04-22T10:27:23.332Z,19.73
2023-04-22T10:30:32.187Z,19.43
2023-04-22T10:33:40.116Z,20.22
2023-04-22T10:37:06.278Z,19.97
2023-04-22T10:40:16.613Z,20.31
2023-04-22T10:43:21.825Z,20.52
2023-04-22T10:47:01.183Z,20.83
2023-04-22T10:50:23.969Z,20.57
2023-04-22T10:53:38.534Z,21.07
2023-04-22T10:57:04.640Z,20.44
2023-04-22T11:00:53.312Z,20.55
2023-04-22T11:04:23.058Z,20.22
2023-04-22T11:07:35.854Z,20.82
2023-04-22T11:10:44.850Z,20.85
2023-04-22T11:13:52.045Z,21.10
2023-04-22T11:16:56.761Z,21.41
2023-04-22T11:20:00.758Z,21.27
2023-04-22T11:23:04.932Z,21.80
2023-04-22T11:26:08.520Z,21.47
2023-04-22T11:29:13.415Z,21.48
2023-04-22T11:32:17.045Z,21.62
2023-04-22T11:35:25.428Z,21.40
2023-04-22T11:38:29.030Z,21.45
2023-04-22T11:41:32.542Z,21.21
2023-04-22T11:44:37.461Z,21.54
2023-04-22T11:47:42.215Z,21.65
2023-04-22T11:50:45.860Z,21.55
2023-04-22T11:53:52.441Z,21.14
2023-04-22T11:56:56.234Z,21.34
2023-04-22T12:00:01.522Z,21.37
2023-04-22T12:03:08.071Z,21.57
2023-04-22T12:06:11.892Z,21.86
2023-04-22T12:09:15.528Z,21.72
2023-04-22T12:12:19.005Z,21.66
2023-04-22T12:15:23.913Z,21.76
2023-04-22T12:18:32.020Z,21.56
2023-04-22T12:21:36.254Z,21.52
2023-04-22T12:24:47.062Z,21.10
2023-04-22T12:27:50.657Z,21.30
2023-04-22T12:30:56.125Z,21.58
2023-04-22T12:34:00.296Z,21.72
2023-04-22T12:37:04.051Z,21.79
2023-04-22T12:40:09.925Z,21.69
2023-04-22T12:43:13.546Z,22.00
2023-04-22T12:46:18.541Z,22.13
2023-04-22T12:49:22.265Z,22.28
2023-04-22T12:52:25.869Z,22.11
2023-04-22T12:55:29.773Z,21.83
2023-04-22T12:58:33.325Z,21.89
2023-04-22T13:01:38.228Z,21.75
2023-04-22T13:04:42.001Z,22.15
2023-04-22T13:07:50.743Z,22.43
2023-04-22T13:11:03.779Z,21.99
2023-04-22T13:14:07.512Z,21.79
2023-04-22T13:17:13.055Z,21.39
2023-04-22T13:20:16.873Z,21.72
2023-04-22T13:23:21.984Z,22.18
2023-04-22T13:26:26.045Z,22.32
2023-04-22T13:29:29.607Z,22.20
2023-04-22T13:32:34.707Z,22.16
2023-04-22T13:35:38.386Z,22.64
2023-04-22T13:38:42.014Z,22.77
2023-04-22T13:41:45.983Z,22.51
2023-04-22T13:44:49.620Z,22.09
2023-04-22T13:47:55.499Z,22.50
2023-04-22T13:50:58.977Z,22.65
2023-04-22T13:54:03.015Z,22.73
2023-04-22T13:57:06.950Z,23.26
2023-04-22T14:00:11.593Z,22.93
2023-04-22T14:03:16.654Z,22.86
2023-04-22T14:06:20.822Z,23.01
2023-04-22T14:09:24.485Z,22.88
2023-04-22T14:12:28.043Z,22.87
2023-04-22T14:15:31.649Z,22.82
2023-04-22T14:18:37.903Z,22.55
2023-04-22T14:21:41.555Z,22.20
2023-04-22T14:24:45.218Z,21.83
2023-04-22T14:27:48.885Z,21.87
2023-04-22T14:30:52.709Z,22.12
2023-04-22T14:33:57.987Z,22.08
2023-04-22T14:37:01.628Z,22.52
2023-04-22T14:40:06.232Z,22.58
2023-04-22T14:43:10.100Z,22.52
2023-04-22T14:46:13.721Z,22.04
2023-04-22T14:49:18.626Z,21.87
2023-04-22T14:52:22.258Z,22.27
2023-04-22T14:55:26.372Z,22.35
2023-04-22T14:58:31.449Z,21.97
2023-04-22T15:01:36.143Z,21.90
2023-04-22T15:04:41.274Z,21.65
2023-04-22T15:07:45.279Z,21.52
2023-04-22T15:10:48.824Z,21.52
2023-04-22T15:13:52.543Z,21.63
2023-04-22T15:16:56.070Z,21.61
2023-04-22T15:20:05.727Z,21.59
2023-04-22T15:23:10.104Z,21.56
2023-04-22T15:26:15.190Z,21.61
2023-04-22T15:29:18.779Z,21.63
2023-04-22T15:32:22.400Z,21.36
2023-04-22T15:35:27.379Z,21.36
2023-04-22T15:38:30.869Z,21.42
2023-04-22T15:41:35.040Z,21.58
2023-04-22T15:44:39.153Z,22.16
2023-04-22T15:47:43.061Z,22.47
2023-04-22T15:50:48.163Z,22.77
2023-04-22T15:53:51.676Z,22.93
2023-04-22T15:56:55.186Z,22.93
2023-04-22T16:00:09.359Z,23.04
2023-04-22T16:03:14.366Z,22.83
2023-04-22T16:06:19.818Z,22.75
2023-04-22T16:09:23.433Z,22.38
2023-04-22T16:12:26.896Z,22.34
2023-04-22T16:15:30.522Z,22.35
2023-04-22T16:18:34.724Z,22.46
2023-04-22T16:21:39.605Z,22.14
2023-04-22T16:24:44.319Z,22.34
2023-04-22T16:27:48.414Z,22.23
2023-04-22T16:30:55.005Z,21.86
2023-04-22T16:33:59.164Z,22.16
2023-04-22T16:37:04.290Z,22.02
2023-04-22T16:40:09.949Z,21.88
2023-04-22T16:43:13.485Z,21.76
2023-04-22T16:46:17.097Z,21.60
2023-04-22T16:49:21.176Z,21.51
2023-04-22T16:52:26.181Z,21.32
2023-04-22T16:55:29.695Z,21.21
2023-04-22T16:58:33.255Z,21.55
2023-04-22T17:01:36.873Z,21.34
2023-04-22T17:04:40.474Z,21.31
2023-04-22T17:07:45.342Z,21.10
2023-04-22T17:10:48.868Z,21.06
2023-04-22T17:13:52.658Z,20.99
2023-04-22T17:16:56.171Z,20.85
2023-04-22T17:19:59.856Z,20.71
2023-04-22T17:23:05.393Z,20.66
2023-04-22T17:26:09.044Z,20.67
2023-04-22T17:29:12.601Z,20.51
2023-04-22T17:32:16.201Z,20.47
2023-04-22T17:35:20.015Z,20.41
2023-04-22T17:38:24.982Z,20.32
2023-04-22T17:41:28.633Z,20.43
2023-04-22T17:44:32.231Z,20.34
2023-04-22T17:47:35.783Z,20.33
2023-04-22T17:50:39.420Z,20.28
2023-04-22T17:53:44.396Z,20.19
2023-04-22T17:56:47.848Z,20.11
2023-04-22T17:59:51.513Z,19.98
2023-04-22T18:02:55.733Z,19.92
2023-04-22T18:05:59.410Z,19.90
2023-04-22T18:09:04.460Z,19.56
2023-04-22T18:12:08.225Z,18.06
2023-04-22T18:15:31.530Z,17.24
2023-04-22T18:18:35.510Z,16.79
2023-04-22T18:21:46.613Z,16.67
2023-04-22T18:24:59.228Z,16.61
2023-04-22T18:28:02.779Z,16.42
2023-04-22T18:31:07.347Z,16.44
2023-04-22T18:34:13.474Z,16.19
2023-04-22T18:37:17.039Z,16.02
2023-04-22T18:40:23.242Z,15.85
2023-04-22T18:43:27.044Z,15.62
2023-04-22T18:46:30.912Z,15.58
2023-04-22T18:49:34.559Z,15.37
2023-04-22T18:52:38.629Z,15.29
2023-04-22T18:55:43.746Z,15.24
2023-04-22T18:58:47.220Z,15.04
2023-04-22T19:01:51.453Z,15.03
2023-04-22T19:04:55.271Z,14.97
2023-04-22T19:07:59.302Z,14.92
2023-04-22T19:11:05.012Z,14.85
2023-04-22T19:14:08.900Z,14.75
2023-04-22T19:17:12.475Z,14.74
2023-04-22T19:20:16.044Z,14.78
2023-04-22T19:23:19.608Z,14.74
2023-04-22T19:26:24.544Z,14.71
2023-04-22T19:29:28.037Z,14.66
2023-04-22T19:32:32.119Z,14.56
2023-04-22T19:35:35.732Z,14.53
2023-04-22T19:38:39.893Z,14.48
2023-04-22T19:41:45.022Z,14.53
2023-04-22T19:44:48.724Z,14.54
2023-04-22T19:47:53.376Z,14.53
2023-04-22T19:50:58.627Z,14.51
2023-04-22T19:54:04.912Z,14.38
2023-04-22T19:57:11.678Z,14.34
2023-04-22T20:00:16.457Z,14.41
2023-04-22T20:03:21.303Z,14.38
2023-04-22T20:06:25.777Z,14.46
2023-04-22T20:09:31.066Z,14.44
2023-04-22T20:12:37.044Z,14.35
2023-04-22T20:15:52.735Z,14.36
2023-04-22T20:18:56.525Z,14.40
2023-04-22T20:22:01.808Z,14.48
2023-04-22T20:25:07.548Z,14.47
2023-04-22T20:28:13.221Z,14.46
2023-04-22T20:31:18.508Z,14.35
2023-04-22T20:34:22.859Z,14.27
2023-04-22T20:37:28.543Z,14.27
2023-04-22T20:40:34.706Z,14.30
2023-04-22T20:43:39.585Z,14.30
2023-04-22T20:46:44.131Z,14.27
2023-04-22T20:49:47.614Z,14.29
2023-04-22T20:52:52.750Z,14.29
2023-04-22T20:55:56.214Z,14.31
2023-04-22T20:59:01.215Z,14.34
2023-04-22T21:02:06.722Z,14.20
2023-04-22T21:05:13.132Z,14.17
2023-04-22T21:08:22.884Z,14.21
2023-04-22T21:11:27.806Z,14.19
2023-04-22T21:14:33.724Z,14.17
2023-04-22T21:17:41.138Z,14.12
2023-04-22T21:20:48.476Z,14.06
2023-04-22T21:23:55.368Z,14.02
2023-04-22T21:27:01.584Z,14.03
2023-04-22T21:30:08.895Z,13.97
2023-04-22T21:33:12.459Z,13.96
2023-04-22T21:36:16.292Z,13.97
2023-04-22T21:39:20.024Z,13.99
2023-04-22T21:42:23.882Z,14.04
2023-04-22T21:45:29.106Z,14.03
2023-04-22T21:48:32.674Z,13.96
2023-04-22T21:51:36.243Z,14.05
2023-04-22T21:54:41.120Z,13.92
2023-04-22T21:57:45.170Z,13.94
2023-04-22T22:00:50.297Z,13.81
2023-04-22T22:03:54.283Z,13.82
2023-04-22T22:06:57.969Z,13.83
2023-04-22T22:10:01.986Z,13.78
2023-04-22T22:13:05.615Z,13.71
2023-04-22T22:16:10.580Z,13.68
2023-04-22T22:19:14.470Z,13.70
2023-04-22T22:22:18.219Z,13.71
2023-04-22T22:25:21.803Z,13.66
2023-04-22T22:28:25.339Z,13.64
2023-04-22T22:31:30.491Z,13.62
2023-04-22T22:34:34.673Z,13.60
2023-04-22T22:37:38.207Z,13.55
2023-04-22T22:40:41.709Z,13.58
2023-04-22T22:43:45.255Z,13.49
2023-04-22T22:46:50.313Z,13.43
2023-04-22T22:49:54.573Z,13.44
2023-04-22T22:52:58.155Z,13.35
2023-04-22T22:56:01.628Z,13.36
2023-04-22T22:59:05.368Z,13.27
2023-04-22T23:02:10.702Z,13.29
2023-04-22T23:05:14.304Z,13.20
2023-04-22T23:08:17.775Z,13.17
2023-04-22T23:11:21.312Z,13.17
2023-04-22T23:14:26.917Z,13.14
2023-04-22T23:17:31.850Z,13.13
2023-04-22T23:20:36.138Z,13.18
2023-04-22T23:23:41.966Z,13.18
2023-04-22T23:26:46.295Z,13.16
2023-04-22T23:29:50.703Z,13.15
2023-04-22T23:32:58.731Z,13.15
2023-04-22T23:36:06.504Z,13.17
2023-04-22T23:39:10.078Z,13.11
2023-04-22T23:42:13.597Z,13.11
2023-04-22T23:45:26.693Z,13.03
2023-04-22T23:48:31.631Z,12.94
2023-04-22T23:51:35.564Z,12.87
2023-04-22T23:54:40.697Z,12.83
2023-04-22T23:57:45.196Z,12.62
